Time;durP1;ratioP1;P1;durP2;ratioP2;P2;SDS_P1;SDS_P2;PMS_P1;PMS_P2;Temp;Humidity;BMP_temperature;BMP_pressure;BME280_temperature;BME280_humidity;BME280_pressure;Samples;Min_cycle;Max_cycle;Signal;HPM_P1;HPM_P2
2021/12/21 00:01:53;;;;;;;3.65;2.10;;;;;;;1.30;77.49;102663.78;5031673;28;20036;-80
2021/12/21 00:04:19;;;;;;;2.20;1.90;;;;;;;1.33;77.44;102652.94;5035982;28;20044;-80
2021/12/21 00:06:44;;;;;;;2.40;1.90;;;;;;;1.36;77.34;102664.03;5052326;28;20025;-80
2021/12/21 00:09:10;;;;;;;4.45;2.38;;;;;;;1.35;77.23;102661.53;5035734;28;20219;-80
2021/12/21 00:11:36;;;;;;;3.75;2.10;;;;;;;1.31;77.38;102657.53;5051051;28;20017;-80
2021/12/21 00:19:22;;;;;;;4.60;1.65;;;;;;;1.20;78.29;102674.31;5051652;28;20053;-80
2021/12/21 00:21:58;;;;;;;4.97;1.83;;;;;;;1.24;78.27;102665.16;5052178;28;20036;-80
2021/12/21 00:24:30;;;;;;;2.95;1.77;;;;;;;1.32;78.16;102670.59;5038508;28;20028;-80
2021/12/21 00:26:56;;;;;;;4.00;1.67;;;;;;;1.36;78.02;102669.31;5035089;28;20029;-80
2021/12/21 00:29:23;;;;;;;2.85;1.50;;;;;;;1.40;77.83;102668.06;5035638;28;20091;-80
2021/12/21 00:31:49;;;;;;;2.60;1.67;;;;;;;1.43;77.51;102659.84;5037016;28;20021;-81
2021/12/21 00:34:15;;;;;;;4.25;1.98;;;;;;;1.45;77.57;102663.22;5035383;28;20083;-80
2021/12/21 00:36:41;;;;;;;3.75;2.10;;;;;;;1.49;77.71;102664.59;5036782;28;20025;-80
2021/12/21 00:39:08;;;;;;;2.35;1.60;;;;;;;1.51;77.32;102664.44;5043099;28;20029;-80
2021/12/21 00:41:34;;;;;;;4.30;2.10;;;;;;;1.56;77.32;102664.84;5048605;28;20063;-80
2021/12/21 00:44:00;;;;;;;3.80;1.50;;;;;;;1.58;77.46;102664.69;5053471;28;20547;-80
2021/12/21 00:46:26;;;;;;;4.10;1.98;;;;;;;1.61;77.02;102659.94;5052033;28;20029;-80
2021/12/21 00:48:55;;;;;;;6.65;2.22;;;;;;;1.61;77.21;102659.94;5051692;28;20516;-80
2021/12/21 00:51:24;;;;;;;2.53;1.83;;;;;;;1.61;77.26;102662.59;5038013;28;20028;-80
2021/12/21 00:53:50;;;;;;;2.83;2.08;;;;;;;1.58;77.09;102664.69;5053133;28;20021;-80
2021/12/21 00:56:15;;;;;;;4.35;2.25;;;;;;;1.62;77.34;102661.66;5045135;28;20036;-81
2021/12/21 00:58:41;;;;;;;3.33;1.90;;;;;;;1.61;77.37;102662.59;5044058;28;20024;-80
2021/12/21 01:01:07;;;;;;;4.03;1.92;;;;;;;1.62;77.21;102659.00;5031829;28;20052;-80
2021/12/21 01:03:37;;;;;;;4.10;2.00;;;;;;;1.60;77.39;102657.44;5030407;28;20086;-80
2021/12/21 01:09:06;;;;;;;3.92;2.28;;;;;;;1.59;77.33;102663.72;5045587;28;20032;-80
2021/12/21 01:11:34;;;;;;;2.78;1.83;;;;;;;1.62;77.45;102658.19;5048152;28;20024;-80
2021/12/21 01:17:01;;;;;;;3.47;1.77;;;;;;;1.63;77.49;102652.75;5045034;28;20035;-81
2021/12/21 01:19:38;;;;;;;2.70;2.17;;;;;;;1.56;77.62;102653.44;5035275;28;20040;-80
2021/12/21 01:22:17;;;;;;;5.22;2.00;;;;;;;1.39;77.95;102655.00;5027282;28;20424;-80
2021/12/21 01:32:31;;;;;;;2.50;1.75;;;;;;;1.38;78.44;102651.53;5044597;28;20500;-81
2021/12/21 01:37:32;;;;;;;4.53;1.77;;;;;;;1.49;78.52;102642.63;5045633;28;20029;-80
2021/12/21 01:40:16;;;;;;;2.35;1.70;;;;;;;1.51;78.67;102638.84;5043258;28;20427;-80
2021/12/21 01:43:10;;;;;;;3.95;2.17;;;;;;;1.59;78.31;102639.94;5029071;28;20127;-80
2021/12/21 01:51:07;;;;;;;4.57;1.80;;;;;;;1.67;77.71;102634.78;5041717;28;20455;-81
2021/12/21 01:53:33;;;;;;;2.45;1.70;;;;;;;1.70;77.76;102627.41;5041261;28;20021;-80
2021/12/21 01:55:59;;;;;;;2.70;1.83;;;;;;;1.71;77.60;102628.22;5041297;28;20033;-81
2021/12/21 01:58:24;;;;;;;5.72;3.00;;;;;;;1.67;78.06;102626.88;5044479;28;20266;-81
2021/12/21 02:00:51;;;;;;;2.38;1.83;;;;;;;1.67;78.01;102626.88;5032578;28;20025;-80
2021/12/21 02:03:17;;;;;;;4.72;1.80;;;;;;;1.70;78.27;102621.28;5031907;28;20149;-80
2021/12/21 02:05:44;;;;;;;4.45;1.90;;;;;;;1.74;77.90;102626.13;5044119;28;20028;-80
2021/12/21 02:08:09;;;;;;;4.93;2.15;;;;;;;1.77;77.81;102619.72;5043462;28;20029;-80
2021/12/21 02:10:35;;;;;;;4.40;2.00;;;;;;;1.78;77.76;102616.94;5030486;28;20028;-80
2021/12/21 02:13:01;;;;;;;3.65;1.95;;;;;;;1.79;77.79;102617.75;5046951;28;20032;-80
2021/12/21 02:15:27;;;;;;;3.78;2.60;;;;;;;1.79;77.93;102623.03;5045654;28;20036;-80
2021/12/21 02:20:43;;;;;;;3.22;2.40;;;;;;;1.83;77.96;102613.88;5041809;28;20039;-80
2021/12/21 02:23:17;;;;;;;4.03;2.20;;;;;;;1.84;77.67;102612.91;5026173;28;20441;-81
2021/12/21 02:26:11;;;;;;;5.28;1.85;;;;;;;1.85;77.84;102624.31;5027218;28;20124;-80
2021/12/21 02:29:09;;;;;;;4.80;2.17;;;;;;;1.85;78.04;102622.50;5024918;28;20063;-81
2021/12/21 02:31:25;;;;;;;3.85;2.22;;;;;;;1.67;78.82;102629.50;5042198;28;20500;-81
2021/12/21 02:33:50;;;;;;;5.63;2.58;;;;;;;1.49;79.08;102624.97;5032257;28;20115;-80
2021/12/21 02:36:16;;;;;;;5.82;2.40;;;;;;;1.39;79.40;102623.31;5048332;28;20174;-80
2021/12/21 02:38:41;;;;;;;5.60;2.70;;;;;;;1.42;79.60;102623.00;5031053;28;20033;-80
2021/12/21 02:41:08;;;;;;;3.22;2.05;;;;;;;1.51;79.29;102622.16;5028775;28;20115;-80
2021/12/21 02:43:36;;;;;;;6.50;2.67;;;;;;;1.62;79.22;102629.09;5028866;28;20024;-80
2021/12/21 02:46:01;;;;;;;3.05;2.05;;;;;;;1.68;79.42;102621.44;5051543;28;20033;-81
2021/12/21 02:48:27;;;;;;;3.40;2.70;;;;;;;1.75;78.98;102627.78;5054719;28;20040;-81
2021/12/21 02:50:52;;;;;;;4.88;2.72;;;;;;;1.79;78.52;102626.53;5029906;28;20221;-80
2021/12/21 02:53:18;;;;;;;7.43;2.65;;;;;;;1.80;78.59;102625.56;5044117;28;20025;-80
2021/12/21 02:55:44;;;;;;;4.30;2.53;;;;;;;1.81;78.35;102618.47;5026947;28;20121;-81
2021/12/21 02:58:09;;;;;;;3.88;2.33;;;;;;;1.84;78.24;102620.00;5030633;28;20416;-81
2021/12/21 03:00:35;;;;;;;4.45;2.28;;;;;;;1.83;78.24;102619.16;5045496;28;20031;-81
2021/12/21 03:03:07;;;;;;;7.57;5.10;;;;;;;1.83;78.31;102623.63;5026323;28;20120;-80
2021/12/21 03:05:33;;;;;;;14.25;8.38;;;;;;;1.83;78.68;102628.91;5042307;28;20112;-80
2021/12/21 03:16:09;;;;;;;35.83;18.33;;;;;;;1.80;78.44;102632.66;5043132;28;20043;-80
2021/12/21 03:18:35;;;;;;;34.28;16.58;;;;;;;1.79;78.32;102639.72;5046920;28;20366;-80
2021/12/21 03:21:01;;;;;;;30.83;13.95;;;;;;;1.77;78.83;102635.56;5041851;28;20625;-81
2021/12/21 03:23:26;;;;;;;26.83;11.95;;;;;;;1.73;78.42;102632.41;5044130;28;20021;-80
2021/12/21 03:25:52;;;;;;;14.60;8.18;;;;;;;1.75;78.73;102630.44;5041107;28;20036;-81
2021/12/21 03:28:17;;;;;;;14.15;7.13;;;;;;;1.71;78.64;102630.88;5028120;28;20067;-80
2021/12/21 03:30:43;;;;;;;10.07;6.60;;;;;;;1.71;78.66;102626.44;5038578;28;20029;-80
2021/12/21 03:33:08;;;;;;;9.13;5.47;;;;;;;1.70;78.99;102626.56;5036320;28;20028;-81
2021/12/21 03:35:34;;;;;;;8.40;5.20;;;;;;;1.70;78.73;102622.13;5039498;28;20032;-81
2021/12/21 03:37:59;;;;;;;7.88;4.60;;;;;;;1.68;79.13;102620.59;5028793;28;20185;-80
2021/12/21 03:40:28;;;;;;;7.45;4.75;;;;;;;1.62;79.54;102623.81;5049691;28;20068;-80
2021/12/21 03:42:53;;;;;;;7.82;3.88;;;;;;;1.62;79.28;102622.00;5051822;28;20100;-80
2021/12/21 03:45:19;;;;;;;7.28;4.60;;;;;;;1.66;79.21;102612.00;5040213;28;20147;-80
2021/12/21 03:47:44;;;;;;;9.30;4.05;;;;;;;1.70;79.15;102616.00;5037612;28;20013;-81
2021/12/21 03:50:17;;;;;;;8.05;3.80;;;;;;;1.73;79.11;102613.91;5051687;28;20063;-81
2021/12/21 03:52:43;;;;;;;4.93;3.05;;;;;;;1.62;79.68;102619.38;5033394;28;20017;-80
2021/12/21 03:55:09;;;;;;;5.78;3.35;;;;;;;1.62;79.74;102613.25;5033728;28;20067;-80
2021/12/21 03:57:34;;;;;;;5.65;3.10;;;;;;;1.65;79.31;102616.44;5032923;28;20318;-80
2021/12/21 04:00:00;;;;;;;6.25;3.20;;;;;;;1.70;79.57;102608.91;5049635;28;20032;-81
2021/12/21 04:02:27;;;;;;;4.10;2.70;;;;;;;1.74;79.44;102614.72;5031455;28;20039;-81
2021/12/21 04:04:54;;;;;;;4.68;3.00;;;;;;;1.76;79.43;102610.13;5051223;28;20040;-81
2021/12/21 04:07:19;;;;;;;5.43;3.22;;;;;;;1.77;79.27;102612.63;5046164;28;20594;-80
2021/12/21 04:09:45;;;;;;;6.05;2.88;;;;;;;1.78;79.00;102614.28;5047136;28;20036;-80
2021/12/21 04:12:11;;;;;;;4.20;3.10;;;;;;;1.72;79.70;102614.88;5044245;28;20037;-80
2021/12/21 04:14:37;;;;;;;5.43;3.20;;;;;;;1.66;79.34;102609.34;5045047;28;20105;-80
2021/12/21 04:17:03;;;;;;;4.18;2.95;;;;;;;1.63;79.52;102602.53;5043930;28;20531;-80
2021/12/21 04:19:28;;;;;;;3.92;2.78;;;;;;;1.62;80.12;102602.69;5028745;28;20056;-81
2021/12/21 04:21:54;;;;;;;5.25;3.33;;;;;;;1.62;79.88;102605.34;5023302;28;20502;-80
2021/12/21 04:24:20;;;;;;;5.07;3.22;;;;;;;1.65;79.49;102611.16;5039665;28;20055;-80
2021/12/21 04:26:45;;;;;;;4.30;2.28;;;;;;;1.68;79.91;102607.38;5042371;28;20026;-80
2021/12/21 04:29:11;;;;;;;5.28;2.70;;;;;;;1.71;79.47;102613.22;5048517;28;20044;-80
2021/12/21 04:31:36;;;;;;;6.57;3.22;;;;;;;1.75;79.43;102608.47;5030449;28;20052;-80
2021/12/21 04:34:02;;;;;;;4.93;2.63;;;;;;;1.75;79.21;102617.22;5026538;28;20029;-80
2021/12/21 04:36:28;;;;;;;4.43;2.95;;;;;;;1.72;79.32;102614.03;5046237;28;20082;-80
2021/12/21 04:38:54;;;;;;;9.13;3.63;;;;;;;1.40;79.68;102609.13;5045723;28;20504;-80
2021/12/21 04:41:26;;;;;;;5.60;3.70;;;;;;;1.14;80.89;102614.16;5045460;28;20151;-81
2021/12/21 04:43:53;;;;;;;5.50;3.97;;;;;;;0.94;81.60;102613.34;5049575;28;20029;-80
2021/12/21 04:46:19;;;;;;;4.55;3.13;;;;;;;0.94;81.71;102612.53;5037014;28;20032;-80
2021/12/21 04:48:45;;;;;;;6.40;3.75;;;;;;;0.99;82.03;102599.72;5052979;28;20021;-81
2021/12/21 04:51:11;;;;;;;6.95;3.70;;;;;;;1.10;82.02;102591.66;5043740;28;20075;-80
2021/12/21 04:53:37;;;;;;;6.88;4.20;;;;;;;1.00;82.45;102599.59;5043124;28;20412;-80
2021/12/21 04:56:03;;;;;;;8.07;4.13;;;;;;;0.81;83.29;102602.22;5033224;28;20032;-80
2021/12/21 04:58:29;;;;;;;5.03;3.17;;;;;;;0.89;82.93;102608.47;5047118;28;20070;-80
2021/12/21 05:00:55;;;;;;;7.25;4.32;;;;;;;1.05;82.65;102599.16;5045647;28;20497;-80
2021/12/21 05:03:20;;;;;;;7.57;3.55;;;;;;;1.19;82.51;102606.66;5035436;28;20045;-80
2021/12/21 05:05:46;;;;;;;6.40;4.15;;;;;;;1.32;82.01;102612.47;5029048;28;20064;-80
2021/12/21 05:08:37;;;;;;;8.25;4.72;;;;;;;1.34;81.67;102613.16;5032790;28;20083;-80
2021/12/21 05:11:03;;;;;;;6.25;3.42;;;;;;;1.28;81.53;102615.56;5040707;28;20044;-80
2021/12/21 05:13:33;;;;;;;7.10;3.97;;;;;;;1.33;81.45;102623.88;5048330;28;20109;-80
2021/12/21 05:15:58;;;;;;;6.85;4.20;;;;;;;1.41;81.34;102627.47;5048298;28;20029;-80
2021/12/21 05:18:24;;;;;;;9.05;4.20;;;;;;;1.51;81.12;102622.16;5049423;28;20036;-80
2021/12/21 05:20:51;;;;;;;8.43;4.50;;;;;;;1.58;80.53;102625.91;5026789;28;20029;-80
2021/12/21 05:23:17;;;;;;;7.43;4.57;;;;;;;1.64;80.72;102629.78;5033359;28;20024;-80
2021/12/21 05:25:44;;;;;;;10.00;5.20;;;;;;;1.68;80.14;102629.34;5028850;28;20074;-80
2021/12/21 05:28:12;;;;;;;10.07;5.60;;;;;;;1.66;80.39;102630.47;5054589;28;20029;-80
2021/12/21 05:30:39;;;;;;;9.80;4.97;;;;;;;1.56;80.61;102635.78;5031857;28;20040;-80
2021/12/21 05:33:05;;;;;;;13.05;5.22;;;;;;;1.44;80.68;102631.66;5048814;28;20132;-81
2021/12/21 05:38:04;;;;;;;12.40;5.38;;;;;;;1.28;81.43;102631.41;5007711;28;20673;-54
2021/12/21 05:40:36;;;;;;;14.88;6.13;;;;;;;1.37;81.09;102628.72;5002361;28;20030;-53
2021/12/21 05:43:04;;;;;;;14.38;6.95;;;;;;;1.44;81.15;102627.19;5007394;28;20025;-56
2021/12/21 05:45:30;;;;;;;14.40;6.75;;;;;;;1.40;81.13;102628.44;4998182;28;20655;-54
2021/12/21 05:47:56;;;;;;;16.42;6.65;;;;;;;1.40;81.01;102628.44;5002571;28;20037;-51
2021/12/21 05:50:21;;;;;;;13.90;6.28;;;;;;;1.45;80.86;102633.31;5000835;28;20482;-55
2021/12/21 05:52:48;;;;;;;15.55;7.03;;;;;;;1.40;81.02;102630.25;5000154;28;20155;-55
2021/12/21 05:55:16;;;;;;;13.23;6.22;;;;;;;1.36;81.41;102640.25;5000695;28;20072;-49
2021/12/21 05:57:42;;;;;;;14.65;7.10;;;;;;;1.29;81.56;102635.69;4999284;28;20095;-53
2021/12/21 06:00:11;;;;;;;15.02;8.13;;;;;;;1.28;81.75;102640.16;4998330;28;20034;-51
2021/12/21 06:02:37;;;;;;;16.35;7.38;;;;;;;1.27;82.01;102638.50;4999659;28;20053;-48
2021/12/21 06:05:04;;;;;;;13.77;6.95;;;;;;;1.28;81.90;102641.97;4998334;28;20257;-51
2021/12/21 06:07:31;;;;;;;18.00;7.22;;;;;;;1.33;81.90;102640.56;5001513;28;20053;-51
2021/12/21 06:09:57;;;;;;;14.68;6.38;;;;;;;1.36;81.74;102634.97;4997750;28;20104;-52
2021/12/21 06:25:57;;;;;;;13.70;6.60;;;;;;;1.35;81.80;102645.69;4997819;28;20042;-49
2021/12/21 06:28:23;;;;;;;13.65;5.88;;;;;;;1.18;82.75;102636.66;5001552;28;20466;-50
2021/12/21 06:30:49;;;;;;;12.77;6.25;;;;;;;1.20;82.64;102640.00;4998960;28;20072;-52
2021/12/21 06:33:15;;;;;;;13.80;5.60;;;;;;;1.27;82.51;102638.50;5000414;28;20500;-50
2021/12/21 06:35:41;;;;;;;12.93;6.50;;;;;;;1.37;82.33;102631.38;4994635;28;20041;-51
2021/12/21 06:38:06;;;;;;;13.73;6.10;;;;;;;1.47;82.15;102632.19;4997292;28;20148;-48
2021/12/21 06:40:33;;;;;;;13.30;5.72;;;;;;;1.54;81.68;102635.09;4997000;28;20722;-49
2021/12/21 06:43:01;;;;;;;13.48;5.78;;;;;;;1.62;81.67;102639.69;4983679;28;20401;-51
2021/12/21 06:45:44;;;;;;;13.27;6.40;;;;;;;1.67;81.30;102650.66;5001037;28;20034;-52
2021/12/21 06:53:44;;;;;;;18.02;7.32;;;;;;;1.64;81.15;102650.94;4998376;28;20029;-52
2021/12/21 06:56:10;;;;;;;16.00;7.72;;;;;;;1.64;81.12;102653.56;4994206;28;20038;-49
2021/12/21 06:58:36;;;;;;;17.02;6.95;;;;;;;1.66;81.09;102656.91;5000273;28;20029;-49
2021/12/21 07:01:03;;;;;;;14.40;6.72;;;;;;;1.58;81.33;102654.13;4994834;28;20398;-52
2021/12/21 07:03:29;;;;;;;16.52;6.75;;;;;;;1.59;81.52;102648.69;4996894;28;20072;-48
2021/12/21 07:05:55;;;;;;;16.05;6.97;;;;;;;1.63;81.40;102651.91;4996327;28;20026;-51
2021/12/21 07:08:27;;;;;;;11.70;5.60;;;;;;;1.65;81.42;102653.44;5000502;28;20511;-49
2021/12/21 07:11:08;;;;;;;17.58;6.80;;;;;;;1.71;81.16;102659.94;5003999;28;20342;-51
2021/12/21 07:19:02;;;;;;;16.17;7.00;;;;;;;1.79;80.88;102657.41;5005907;28;20722;-53
2021/12/21 07:21:27;;;;;;;13.85;6.35;;;;;;;1.81;80.67;102650.19;5003162;28;20026;-52
2021/12/21 07:23:53;;;;;;;19.83;8.85;;;;;;;1.84;81.14;102647.25;5001758;28;20361;-53
2021/12/21 07:26:18;;;;;;;19.40;8.25;;;;;;;1.80;80.56;102659.09;5004500;28;20520;-51
2021/12/21 07:28:44;;;;;;;17.73;7.13;;;;;;;1.83;80.91;102653.53;5006070;28;20036;-53
2021/12/21 07:31:10;;;;;;;19.75;8.00;;;;;;;1.77;80.91;102654.91;5007341;28;20030;-51
2021/12/21 07:33:35;;;;;;;22.13;9.10;;;;;;;1.65;81.19;102656.06;5002603;28;20481;-49
2021/12/21 07:36:02;;;;;;;18.52;7.78;;;;;;;1.64;81.04;102654.41;5004455;28;20029;-53
2021/12/21 07:38:30;;;;;;;16.95;7.85;;;;;;;1.69;81.15;102661.91;5003331;28;20236;-53
2021/12/21 07:40:57;;;;;;;18.92;7.95;;;;;;;1.73;80.78;102666.75;5003562;28;20108;-51
2021/12/21 07:43:23;;;;;;;18.13;8.30;;;;;;;1.70;81.34;102653.00;5004222;28;20089;-52
2021/12/21 07:45:49;;;;;;;17.05;6.78;;;;;;;1.72;81.49;102656.31;5002662;28;20033;-53
2021/12/21 07:48:14;;;;;;;19.63;8.18;;;;;;;1.77;81.07;102659.34;5003714;28;20033;-51
2021/12/21 07:50:40;;;;;;;16.55;7.30;;;;;;;1.77;81.06;102651.44;5001682;28;20030;-52
2021/12/21 07:53:06;;;;;;;16.45;7.65;;;;;;;1.71;80.94;102660.78;5002239;28;20028;-52
2021/12/21 07:55:31;;;;;;;18.90;7.72;;;;;;;1.68;80.89;102661.06;5005712;28;20495;-51
2021/12/21 07:57:57;;;;;;;20.42;7.50;;;;;;;1.67;81.04;102669.13;5004649;28;20038;-52
2021/12/21 08:00:23;;;;;;;15.07;6.60;;;;;;;1.70;81.34;102658.28;5003242;28;20034;-52
2021/12/21 08:02:49;;;;;;;18.77;7.85;;;;;;;1.73;81.20;102656.19;5003766;28;20107;-49
2021/12/21 08:05:15;;;;;;;18.00;7.05;;;;;;;1.78;81.20;102661.84;5004153;28;20067;-50
2021/12/21 08:07:52;;;;;;;20.48;9.18;;;;;;;1.78;81.13;102656.56;5000034;28;20026;-53
2021/12/21 08:10:25;;;;;;;16.17;6.90;;;;;;;1.82;81.18;102657.16;5003487;28;20708;-49
2021/12/21 08:12:52;;;;;;;12.95;6.65;;;;;;;1.88;80.59;102663.66;5002126;28;20036;-49
2021/12/21 08:15:18;;;;;;;21.20;7.50;;;;;;;1.89;80.64;102668.78;5003125;28;20128;-50
2021/12/21 08:17:43;;;;;;;15.98;6.45;;;;;;;1.91;80.50;102671.28;4999992;28;20530;-49
2021/12/21 08:20:09;;;;;;;17.25;7.43;;;;;;;1.97;80.56;102668.88;5001678;28;20057;-52
2021/12/21 08:22:34;;;;;;;14.45;6.82;;;;;;;1.97;80.13;102679.47;5002133;28;20025;-53
2021/12/21 08:25:00;;;;;;;21.13;7.93;;;;;;;1.95;80.37;102665.56;5006478;28;20088;-49
2021/12/21 08:27:25;;;;;;;18.35;7.88;;;;;;;1.94;80.35;102666.53;5005950;28;20117;-50
2021/12/21 08:29:51;;;;;;;16.25;7.85;;;;;;;1.93;80.08;102664.03;5004528;28;20049;-50
2021/12/21 08:32:17;;;;;;;14.25;7.38;;;;;;;1.92;80.31;102671.16;5003327;28;20527;-53
2021/12/21 08:34:42;;;;;;;20.33;8.80;;;;;;;1.88;80.59;102667.13;4999134;28;20053;-49
2021/12/21 08:37:08;;;;;;;16.90;7.68;;;;;;;1.88;80.60;102667.13;5002352;28;20388;-52
2021/12/21 08:39:39;;;;;;;20.75;8.95;;;;;;;1.89;80.43;102670.59;5005067;28;20053;-53
2021/12/21 08:42:12;;;;;;;23.70;8.98;;;;;;;1.88;80.26;102667.13;4998654;28;20025;-53
2021/12/21 08:44:38;;;;;;;17.90;8.55;;;;;;;1.91;80.27;102672.13;5002650;28;20454;-50
2021/12/21 08:47:04;;;;;;;17.40;8.30;;;;;;;1.92;80.40;102671.16;4999417;28;20116;-52
2021/12/21 08:49:30;;;;;;;27.17;9.55;;;;;;;1.74;80.53;102671.06;5001743;28;20425;-52
2021/12/21 08:51:56;;;;;;;20.33;8.93;;;;;;;1.70;80.53;102671.50;4998605;28;20026;-51
2021/12/21 08:54:22;;;;;;;21.25;9.25;;;;;;;1.65;81.26;102668.44;5003532;28;20033;-50
2021/12/21 08:56:48;;;;;;;24.02;9.57;;;;;;;1.66;81.55;102681.53;5001565;28;20092;-52
2021/12/21 08:59:15;;;;;;;20.65;10.40;;;;;;;1.71;81.13;102681.09;5001908;28;20034;-52
2021/12/21 09:01:42;;;;;;;22.95;9.48;;;;;;;1.75;81.16;102690.38;5001879;28;20366;-49
2021/12/21 09:04:08;;;;;;;26.60;10.45;;;;;;;1.81;81.13;102693.31;5003342;28;20037;-51
2021/12/21 09:06:33;;;;;;;22.70;9.75;;;;;;;1.82;81.14;102694.16;4999338;28;20034;-52
2021/12/21 09:08:59;;;;;;;27.23;11.10;;;;;;;1.90;80.87;102690.78;5002495;28;20038;-52
2021/12/21 09:11:24;;;;;;;25.88;10.55;;;;;;;1.94;80.69;102695.63;5001011;28;20514;-53
2021/12/21 09:13:50;;;;;;;25.52;9.48;;;;;;;1.64;81.40;102698.50;5003712;28;20161;-53
2021/12/21 09:16:15;;;;;;;21.67;10.23;;;;;;;1.42;81.99;102695.16;5003378;28;20048;-51
2021/12/21 09:18:41;;;;;;;26.17;9.70;;;;;;;1.40;82.41;102698.91;5004086;28;20088;-53
2021/12/21 09:21:06;;;;;;;29.42;11.10;;;;;;;1.26;82.85;102701.97;5000411;28;20026;-52
2021/12/21 09:23:32;;;;;;;27.38;10.35;;;;;;;1.21;83.83;102702.41;4985674;28;20026;-51
2021/12/21 09:25:57;;;;;;;35.13;12.50;;;;;;;1.27;83.66;102704.50;5028047;22;20076;-72
2021/12/21 09:28:23;;;;;;;33.10;11.55;;;;;;;1.35;83.43;102706.44;5027655;28;20583;-72
2021/12/21 09:30:48;;;;;;;34.30;12.05;;;;;;;1.52;82.82;102706.56;5019081;28;20040;-72
2021/12/21 09:33:14;;;;;;;33.45;11.98;;;;;;;1.60;83.03;102705.84;5016665;28;20033;-72
2021/12/21 09:35:40;;;;;;;31.55;12.68;;;;;;;1.71;82.41;102704.88;5020953;28;20484;-72
2021/12/21 09:38:05;;;;;;;33.05;12.60;;;;;;;1.74;82.10;102710.69;5019974;28;20099;-72
2021/12/21 09:40:38;;;;;;;47.83;15.05;;;;;;;1.57;82.42;102707.94;5021365;28;20099;-72
2021/12/21 09:43:06;;;;;;;39.85;13.07;;;;;;;1.52;82.46;102711.84;5022901;28;20025;-72
2021/12/21 09:45:32;;;;;;;41.42;13.95;;;;;;;1.57;82.19;102713.22;5025649;28;20037;-72
2021/12/21 09:47:58;;;;;;;44.35;15.68;;;;;;;1.61;82.63;102711.97;5024699;28;20037;-72
2021/12/21 09:50:25;;;;;;;52.38;15.50;;;;;;;1.59;82.50;102713.91;5006027;28;20030;-72
2021/12/21 09:52:52;;;;;;;43.17;14.48;;;;;;;1.62;82.37;102718.94;5024028;28;20021;-72
2021/12/21 09:55:19;;;;;;;20.90;8.40;;;;;;;1.43;82.93;102711.84;5028685;28;20026;-72
2021/12/21 09:57:45;;;;;;;23.23;9.00;;;;;;;1.34;82.83;102712.69;5006928;28;20445;-72
2021/12/21 10:00:16;;;;;;;16.10;5.78;;;;;;;1.31;83.08;102716.44;5023282;28;20025;-72
2021/12/21 10:02:41;;;;;;;12.13;5.78;;;;;;;1.35;82.81;102720.47;5021070;28;20392;-72
2021/12/21 10:05:13;;;;;;;10.27;4.75;;;;;;;1.36;83.10;102727.44;5026798;28;20029;-72
2021/12/21 10:07:39;;;;;;;7.15;4.13;;;;;;;1.43;82.94;102728.53;5019025;28;20490;-72
2021/12/21 10:10:14;;;;;;;8.30;3.88;;;;;;;1.42;82.97;102729.50;5022747;28;20041;-72
2021/12/21 10:12:46;;;;;;;6.55;3.67;;;;;;;1.36;82.79;102722.13;5020904;28;20463;-72
2021/12/21 10:15:16;;;;;;;6.13;3.42;;;;;;;1.35;82.84;102723.13;5021709;28;20285;-72
2021/12/21 10:17:54;;;;;;;6.03;3.13;;;;;;;1.41;82.73;102721.72;5021408;28;20033;-73
2021/12/21 10:20:39;;;;;;;7.28;4.07;;;;;;;1.44;82.63;102718.81;5020968;28;20049;-72
2021/12/21 10:23:11;;;;;;;8.10;4.25;;;;;;;1.50;82.44;102726.19;5023478;28;20032;-73
2021/12/21 10:26:11;;;;;;;7.45;3.65;;;;;;;1.42;82.34;102720.75;5021413;28;20026;-73
2021/12/21 10:28:41;;;;;;;5.68;3.17;;;;;;;1.31;82.71;102710.34;5018438;28;20116;-73
2021/12/21 10:31:28;;;;;;;5.07;2.67;;;;;;;1.25;83.17;102711.69;5007438;28;20090;-73
2021/12/21 10:33:56;;;;;;;7.28;2.83;;;;;;;1.18;83.35;102715.88;5022857;28;20022;-73
2021/12/21 10:36:24;;;;;;;6.90;3.65;;;;;;;1.09;83.77;102707.00;5001124;28;20035;-73
2021/12/21 10:38:56;;;;;;;6.25;3.42;;;;;;;1.07;84.24;102702.81;5008070;28;20043;-73
2021/12/21 10:41:44;;;;;;;5.93;3.42;;;;;;;1.24;84.40;102703.91;5020560;28;20032;-72
2021/12/21 10:44:18;;;;;;;6.15;3.90;;;;;;;1.44;83.64;102701.16;5023655;28;20674;-73
2021/12/21 10:46:46;;;;;;;9.45;4.68;;;;;;;1.33;83.62;102697.81;5017461;28;20026;-73
2021/12/21 10:49:15;;;;;;;8.27;5.00;;;;;;;1.16;84.18;102696.72;5019632;28;20044;-73
2021/12/21 10:52:07;;;;;;;12.90;5.72;;;;;;;1.09;84.61;102700.88;5019573;28;20076;-73
2021/12/21 10:54:41;;;;;;;7.65;4.53;;;;;;;1.24;84.16;102699.47;5019366;28;20029;-73
2021/12/21 10:57:18;;;;;;;16.73;6.73;;;;;;;1.15;84.98;102695.88;5018360;28;20108;-73
2021/12/21 10:59:46;;;;;;;13.55;6.15;;;;;;;1.32;84.54;102696.16;5022508;28;20667;-73
2021/12/21 11:02:16;;;;;;;14.68;6.45;;;;;;;1.43;84.04;102694.19;5004054;28;20418;-73
2021/12/21 11:04:48;;;;;;;12.70;5.85;;;;;;;1.54;83.92;102687.94;5020932;28;20022;-73
2021/12/21 11:10:15;;;;;;;15.25;6.57;;;;;;;1.68;83.28;102681.38;5003273;28;20033;-73
2021/12/21 11:12:48;;;;;;;17.92;7.78;;;;;;;1.43;82.98;102677.50;5020813;28;20115;-73
2021/12/21 11:15:17;;;;;;;17.73;7.18;;;;;;;1.25;84.58;102679.19;5023248;28;20112;-73
2021/12/21 11:17:42;;;;;;;14.85;6.88;;;;;;;1.24;84.81;102682.81;5006526;28;20104;-73
2021/12/21 11:20:10;;;;;;;17.63;7.88;;;;;;;1.10;85.45;102676.16;5023028;28;20120;-73
2021/12/21 11:22:39;;;;;;;20.63;7.57;;;;;;;1.06;85.58;102680.03;5019551;28;20158;-73
2021/12/21 11:25:07;;;;;;;25.92;8.65;;;;;;;1.03;85.97;102675.03;5022025;28;20540;-73
2021/12/21 11:27:35;;;;;;;17.13;7.45;;;;;;;1.11;86.18;102677.81;5019858;28;20025;-73
2021/12/21 11:30:05;;;;;;;18.35;7.60;;;;;;;1.02;86.12;102686.56;5021543;28;20061;-73
2021/12/21 11:32:34;;;;;;;16.25;7.28;;;;;;;1.13;86.24;102681.97;5023204;28;20014;-73
2021/12/21 11:37:46;;;;;;;21.83;9.80;;;;;;;1.51;84.77;102682.94;5019285;28;20449;-73
2021/12/21 11:40:22;;;;;;;19.58;9.52;;;;;;;1.63;84.16;102686.25;5018578;28;20041;-73
2021/12/21 11:42:50;;;;;;;22.88;9.27;;;;;;;1.71;83.68;102689.00;5019267;28;20095;-74
2021/12/21 11:45:27;;;;;;;22.75;10.10;;;;;;;1.71;83.34;102683.72;5022569;28;20095;-73
2021/12/21 11:47:59;;;;;;;19.45;9.05;;;;;;;1.71;82.95;102681.91;5020512;28;20040;-73
2021/12/21 11:50:25;;;;;;;15.48;6.90;;;;;;;1.68;83.03;102681.38;5019631;28;20030;-73
2021/12/21 11:52:55;;;;;;;17.42;8.95;;;;;;;1.50;83.13;102684.75;5001590;28;20022;-73
2021/12/21 11:55:24;;;;;;;16.17;7.70;;;;;;;1.41;83.53;102680.28;5020563;28;20473;-73
2021/12/21 11:57:54;;;;;;;15.02;7.07;;;;;;;1.51;83.81;102682.94;5020920;28;20752;-73
2021/12/21 12:00:32;;;;;;;12.95;6.00;;;;;;;1.60;83.27;102668.03;5015967;28;20029;-73
2021/12/21 12:03:10;;;;;;;10.38;5.18;;;;;;;1.68;83.45;102681.38;5021198;28;20022;-73
2021/12/21 12:05:36;;;;;;;10.55;6.07;;;;;;;1.74;83.25;102681.63;5019380;28;20936;-73
2021/12/21 12:08:10;;;;;;;10.60;4.95;;;;;;;1.68;82.90;102676.09;5023161;28;20033;-73
2021/12/21 12:10:49;;;;;;;10.00;5.10;;;;;;;1.64;82.90;102678.19;5005250;28;20033;-72
2021/12/21 12:13:27;;;;;;;9.10;4.68;;;;;;;1.74;82.55;102681.63;5025885;28;20026;-73
2021/12/21 12:16:00;;;;;;;8.02;4.50;;;;;;;1.80;82.67;102678.44;5024149;28;20052;-73
2021/12/21 12:18:32;;;;;;;7.15;3.90;;;;;;;1.80;82.50;102670.50;5024755;28;20064;-73
2021/12/21 12:21:09;;;;;;;8.77;3.40;;;;;;;1.66;82.51;102668.31;4995147;28;20566;-72
2021/12/21 12:23:47;;;;;;;6.15;3.42;;;;;;;1.61;82.82;102669.69;5001436;28;20161;-72
2021/12/21 12:26:27;;;;;;;9.43;4.88;;;;;;;1.53;82.91;102673.06;5024771;28;20084;-73
2021/12/21 12:28:55;;;;;;;8.98;6.07;;;;;;;1.36;83.28;102665.84;5025358;28;20030;-73
2021/12/21 12:31:35;;;;;;;7.88;4.40;;;;;;;1.32;83.52;102673.22;5026123;28;20021;-73
2021/12/21 12:34:02;;;;;;;5.63;3.85;;;;;;;1.25;83.74;102666.81;5024160;28;20040;-73
2021/12/21 12:36:49;;;;;;;6.55;4.07;;;;;;;0.98;84.84;102662.25;5024153;28;20112;-73
2021/12/21 12:39:44;;;;;;;7.47;4.32;;;;;;;1.06;85.02;102666.81;5024797;28;20025;-73
2021/12/21 12:42:18;;;;;;;7.22;4.43;;;;;;;1.01;84.85;102672.53;5013389;28;20065;-73
2021/12/21 12:44:50;;;;;;;8.13;4.80;;;;;;;0.98;85.50;102667.53;5007226;28;20378;-72
2021/12/21 12:47:17;;;;;;;8.80;4.57;;;;;;;1.02;86.04;102671.53;5019860;28;20289;-73